Time;durP1;ratioP1;P1;durP2;ratioP2;P2;SDS_P1;SDS_P2;PMS_P1;PMS_P2;Temp;Humidity;BMP_temperature;BMP_pressure;BME280_temperature;BME280_humidity;BME280_pressure;Samples;Min_cycle;Max_cycle;Signal;HPM_P1;HPM_P2
2024/01/17 00:01:58;;;;;;;4.07;3.47;;;16.60;30.40;;;;;;5151351;27;45378;-70
2024/01/17 00:04:25;;;;;;;4.35;3.33;;;16.60;30.50;;;;;;5151137;27;45453;-70
2024/01/17 00:06:55;;;;;;;4.97;3.35;;;16.70;30.50;;;;;;5151394;27;45228;-69
2024/01/17 00:09:21;;;;;;;5.43;3.78;;;16.70;31.10;;;;;;5151060;27;45377;-70
2024/01/17 00:11:49;;;;;;;5.00;3.63;;;16.60;30.50;;;;;;5151459;27;45504;-70
2024/01/17 00:14:16;;;;;;;4.30;3.30;;;16.60;30.50;;;;;;5151028;27;48521;-70
2024/01/17 00:16:42;;;;;;;5.10;3.30;;;16.60;30.50;;;;;;5151131;27;45248;-71
2024/01/17 00:19:09;;;;;;;5.30;3.55;;;16.70;30.60;;;;;;5151377;27;45183;-71
2024/01/17 00:21:37;;;;;;;4.47;3.50;;;16.60;30.60;;;;;;5151245;27;45376;-70
2024/01/17 00:24:05;;;;;;;4.38;3.28;;;16.70;31.30;;;;;;5151019;27;45648;-70
2024/01/17 00:26:32;;;;;;;4.88;3.17;;;16.70;30.70;;;;;;5150847;27;45327;-70
2024/01/17 00:28:59;;;;;;;5.18;3.50;;;16.60;30.70;;;;;;5151176;27;45304;-71
2024/01/17 00:31:26;;;;;;;3.85;3.42;;;16.60;30.60;;;;;;5151298;27;45433;-70
2024/01/17 00:33:53;;;;;;;4.68;3.15;;;16.60;30.70;;;;;;5150379;27;45406;-70
2024/01/17 00:36:20;;;;;;;4.85;3.30;;;16.60;30.70;;;;;;5150797;27;45192;-70
2024/01/17 00:38:47;;;;;;;5.75;3.17;;;16.60;30.70;;;;;;5151065;27;45194;-71
2024/01/17 00:41:15;;;;;;;4.57;3.10;;;16.60;30.70;;;;;;5150628;27;45251;-70
2024/01/17 00:43:42;;;;;;;4.15;3.00;;;16.60;30.80;;;;;;5150638;27;46287;-70
2024/01/17 00:46:10;;;;;;;4.15;2.92;;;16.60;30.80;;;;;;5149492;27;45401;-70
2024/01/17 00:48:36;;;;;;;4.85;2.88;;;16.60;30.90;;;;;;5150708;27;45233;-71
2024/01/17 00:51:04;;;;;;;3.30;2.75;;;16.60;30.90;;;;;;5150752;27;45609;-70
2024/01/17 00:53:31;;;;;;;4.25;3.38;;;16.60;30.90;;;;;;5149170;27;46680;-70
2024/01/17 00:55:58;;;;;;;3.92;3.17;;;16.60;30.90;;;;;;5150578;27;45448;-71
2024/01/17 00:58:26;;;;;;;3.50;2.83;;;16.60;31.00;;;;;;5150451;27;45315;-71
2024/01/17 01:00:53;;;;;;;4.88;3.13;;;16.60;31.00;;;;;;5150675;27;45302;-70
2024/01/17 01:03:20;;;;;;;3.58;3.10;;;16.60;31.00;;;;;;5150359;27;46474;-70
2024/01/17 01:05:47;;;;;;;3.70;2.75;;;16.60;31.10;;;;;;5150226;27;45307;-71
2024/01/17 01:08:14;;;;;;;3.42;2.97;;;16.60;31.10;;;;;;5150466;27;45357;-70
2024/01/17 01:10:41;;;;;;;5.15;2.72;;;16.60;31.10;;;;;;5150518;27;45332;-71
2024/01/17 01:13:08;;;;;;;3.53;2.72;;;16.60;31.10;;;;;;5150068;27;45548;-70
2024/01/17 01:15:36;;;;;;;4.63;3.22;;;16.60;31.10;;;;;;5150584;27;45191;-70
2024/01/17 01:18:03;;;;;;;3.67;2.95;;;16.60;31.10;;;;;;5150258;27;45287;-70
2024/01/17 01:20:30;;;;;;;4.05;2.88;;;16.60;31.10;;;;;;5150448;27;45315;-71
2024/01/17 01:22:57;;;;;;;4.45;3.10;;;16.60;31.20;;;;;;5149871;27;45485;-70
2024/01/17 01:25:24;;;;;;;4.05;2.72;;;16.60;31.20;;;;;;5149872;27;45257;-70
2024/01/17 01:27:50;;;;;;;3.28;2.60;;;16.50;31.20;;;;;;5150121;27;45320;-71
2024/01/17 01:30:17;;;;;;;5.30;2.75;;;16.60;31.20;;;;;;5150328;27;45398;-70
2024/01/17 01:32:45;;;;;;;3.47;3.00;;;16.60;31.20;;;;;;5149914;27;46269;-70
2024/01/17 01:35:12;;;;;;;4.22;2.95;;;16.60;31.20;;;;;;5149401;27;45306;-69
2024/01/17 01:37:39;;;;;;;5.53;2.97;;;16.60;31.30;;;;;;5149824;27;45325;-71
2024/01/17 01:40:08;;;;;;;4.60;2.50;;;16.60;31.30;;;;;;5150394;27;45219;-71
2024/01/17 01:42:35;;;;;;;4.00;2.67;;;16.60;31.90;;;;;;5149093;27;47664;-71
2024/01/17 01:45:02;;;;;;;5.22;2.85;;;16.60;31.30;;;;;;5149800;27;45247;-70
2024/01/17 01:47:29;;;;;;;3.42;2.88;;;16.50;31.30;;;;;;5147034;27;45324;-71
2024/01/17 01:49:57;;;;;;;3.45;2.50;;;16.50;31.30;;;;;;5149892;27;45355;-73
2024/01/17 01:52:24;;;;;;;4.15;2.80;;;16.50;31.30;;;;;;5149486;27;46715;-70
2024/01/17 01:54:51;;;;;;;3.70;2.38;;;16.50;31.30;;;;;;5149558;27;45388;-71
2024/01/17 01:57:18;;;;;;;3.45;2.60;;;16.60;31.40;;;;;;5149593;27;45230;-71
2024/01/17 01:59:45;;;;;;;3.70;2.65;;;16.60;31.40;;;;;;5149682;27;45398;-70
2024/01/17 02:02:12;;;;;;;2.72;2.50;;;16.60;31.40;;;;;;5149282;27;45314;-70
2024/01/17 02:04:39;;;;;;;3.33;2.42;;;16.60;31.40;;;;;;5148282;27;45319;-70
2024/01/17 02:07:07;;;;;;;3.67;2.67;;;16.50;31.40;;;;;;5149462;27;45301;-70
2024/01/17 02:09:34;;;;;;;3.50;2.47;;;16.50;31.50;;;;;;5149721;27;45187;-70
2024/01/17 02:12:01;;;;;;;2.83;2.50;;;16.50;31.50;;;;;;5149373;27;45315;-70
2024/01/17 02:14:28;;;;;;;3.15;2.47;;;16.50;31.50;;;;;;5149090;27;45312;-70
2024/01/17 02:16:55;;;;;;;2.95;2.65;;;16.50;32.20;;;;;;5149494;27;45372;-70
2024/01/17 02:19:22;;;;;;;2.40;2.20;;;16.50;31.60;;;;;;5148674;27;45394;-70
2024/01/17 02:21:49;;;;;;;3.97;2.92;;;16.50;31.50;;;;;;5149457;27;45288;-70
2024/01/17 02:24:17;;;;;;;3.35;2.58;;;16.50;31.50;;;;;;5149096;27;45194;-71
2024/01/17 02:26:44;;;;;;;2.92;2.30;;;16.50;31.60;;;;;;5149339;27;45435;-70
2024/01/17 02:29:11;;;;;;;4.15;2.70;;;16.50;31.60;;;;;;5149244;27;45298;-71
2024/01/17 02:31:37;;;;;;;3.00;2.35;;;16.50;31.60;;;;;;5149030;27;46399;-70
2024/01/17 02:34:04;;;;;;;2.60;1.95;;;16.50;31.70;;;;;;5149097;27;45272;-71
2024/01/17 02:36:31;;;;;;;3.90;2.70;;;16.50;31.70;;;;;;5148769;27;45248;-70
2024/01/17 02:38:58;;;;;;;3.38;2.30;;;16.50;31.60;;;;;;5149104;27;45379;-70
2024/01/17 02:41:26;;;;;;;4.22;2.55;;;16.50;31.60;;;;;;5148219;27;46330;-70
2024/01/17 02:43:53;;;;;;;3.03;2.72;;;16.50;31.70;;;;;;5148625;27;45259;-70
2024/01/17 02:46:20;;;;;;;3.05;2.63;;;16.60;31.70;;;;;;5148950;27;45139;-70
2024/01/17 02:48:47;;;;;;;4.70;2.47;;;16.50;31.70;;;;;;5149121;27;45338;-70
2024/01/17 02:51:14;;;;;;;2.63;2.42;;;16.50;31.70;;;;;;5148660;27;46354;-70
2024/01/17 02:53:41;;;;;;;4.55;2.10;;;16.50;31.80;;;;;;5148667;27;45395;-71
2024/01/17 02:56:08;;;;;;;2.33;2.05;;;16.50;31.80;;;;;;5148673;27;45496;-70
2024/01/17 02:58:36;;;;;;;2.47;2.25;;;16.50;31.80;;;;;;5148880;27;45208;-71
2024/01/17 03:01:03;;;;;;;3.17;2.30;;;16.50;31.80;;;;;;5148163;27;45383;-70
2024/01/17 03:03:30;;;;;;;2.78;2.40;;;16.50;31.80;;;;;;5147616;27;45362;-70
2024/01/17 03:05:57;;;;;;;2.45;2.15;;;16.50;31.80;;;;;;5148561;27;45238;-71
2024/01/17 03:08:24;;;;;;;2.47;2.28;;;16.50;31.80;;;;;;5148736;27;45249;-71
2024/01/17 03:10:51;;;;;;;3.22;2.92;;;16.50;31.90;;;;;;5148419;27;46380;-70
2024/01/17 03:13:18;;;;;;;2.80;2.40;;;16.50;31.90;;;;;;5148337;27;45353;-71
2024/01/17 03:15:47;;;;;;;2.92;2.60;;;16.50;31.90;;;;;;5148405;27;45309;-70
2024/01/17 03:18:16;;;;;;;3.25;2.42;;;16.50;31.90;;;;;;5152243;27;45354;-70
2024/01/17 03:20:43;;;;;;;4.15;2.58;;;16.50;31.90;;;;;;5151815;27;45462;-71
2024/01/17 03:23:09;;;;;;;2.50;2.20;;;16.50;31.90;;;;;;5151941;27;45317;-71
2024/01/17 03:25:37;;;;;;;3.38;2.70;;;16.50;31.90;;;;;;5152189;27;45322;-70
2024/01/17 03:28:04;;;;;;;3.15;2.20;;;16.50;31.90;;;;;;5152287;27;45409;-71
2024/01/17 03:30:32;;;;;;;3.05;2.45;;;16.50;31.90;;;;;;5151777;27;47362;-70
2024/01/17 03:33:00;;;;;;;2.80;2.30;;;16.50;31.90;;;;;;5151911;27;45268;-70
2024/01/17 03:35:27;;;;;;;3.15;2.28;;;16.50;32.60;;;;;;5151906;27;45280;-70
2024/01/17 03:37:54;;;;;;;4.00;2.20;;;16.50;32.00;;;;;;5152213;27;45327;-71
2024/01/17 03:40:21;;;;;;;2.60;2.05;;;16.50;32.00;;;;;;5151504;27;45527;-70
2024/01/17 03:42:48;;;;;;;4.25;2.38;;;16.50;32.00;;;;;;5151284;27;45376;-70
2024/01/17 03:45:15;;;;;;;2.25;2.05;;;16.50;32.00;;;;;;5151510;27;45447;-69
2024/01/17 03:47:42;;;;;;;2.80;2.50;;;16.50;32.00;;;;;;5151231;27;45413;-70
2024/01/17 03:50:10;;;;;;;3.42;2.28;;;16.50;32.00;;;;;;5151574;27;46393;-70
2024/01/17 03:52:37;;;;;;;3.15;2.22;;;16.50;32.10;;;;;;5151578;27;45357;-70
2024/01/17 03:55:05;;;;;;;2.65;2.35;;;16.50;32.10;;;;;;5151574;27;45274;-70
2024/01/17 03:57:32;;;;;;;2.78;2.20;;;16.50;32.20;;;;;;5149013;27;45244;-70
2024/01/17 03:59:59;;;;;;;3.10;2.10;;;16.50;32.20;;;;;;5151292;27;45248;-70
2024/01/17 04:02:26;;;;;;;3.33;2.33;;;16.50;32.20;;;;;;5151242;27;45316;-70
2024/01/17 04:04:53;;;;;;;2.35;2.10;;;16.50;32.20;;;;;;5151340;27;45250;-70
2024/01/17 04:07:22;;;;;;;4.55;2.42;;;16.50;32.20;;;;;;5151542;27;45358;-70
2024/01/17 04:09:49;;;;;;;4.93;2.42;;;16.50;32.10;;;;;;5151158;27;46380;-70
2024/01/17 04:12:16;;;;;;;2.33;2.13;;;16.60;32.10;;;;;;5151142;27;45402;-70
2024/01/17 04:14:43;;;;;;;2.80;2.10;;;16.60;32.10;;;;;;5151212;27;45365;-70
2024/01/17 04:17:11;;;;;;;3.38;2.47;;;16.70;32.00;;;;;;5151442;27;45329;-70
2024/01/17 04:19:37;;;;;;;2.40;1.73;;;16.70;31.90;;;;;;5150830;27;48595;-71
2024/01/17 04:22:04;;;;;;;2.67;2.45;;;16.80;31.80;;;;;;5151018;27;45341;-70
2024/01/17 04:24:32;;;;;;;2.50;2.28;;;16.90;31.70;;;;;;5151304;27;45170;-70
2024/01/17 04:26:59;;;;;;;3.38;1.90;;;17.00;31.50;;;;;;5151268;27;45546;-70
2024/01/17 04:29:26;;;;;;;2.25;1.85;;;17.20;31.40;;;;;;5149409;27;45389;-70
2024/01/17 04:31:53;;;;;;;2.25;2.05;;;17.30;31.30;;;;;;5150458;27;45331;-70
2024/01/17 04:34:20;;;;;;;3.08;2.05;;;17.40;31.10;;;;;;5150999;27;45303;-70
2024/01/17 04:36:47;;;;;;;2.92;1.95;;;17.50;31.10;;;;;;5151069;27;45408;-70
2024/01/17 04:39:15;;;;;;;2.75;2.38;;;17.50;30.90;;;;;;5150702;27;46637;-70
2024/01/17 04:41:43;;;;;;;2.65;2.08;;;17.60;30.90;;;;;;5150865;27;45445;-70
2024/01/17 04:44:10;;;;;;;3.15;2.00;;;17.70;30.80;;;;;;5150727;27;45261;-70
2024/01/17 04:46:37;;;;;;;2.05;1.70;;;17.80;30.70;;;;;;5150891;27;45401;-70
2024/01/17 04:49:06;;;;;;;2.22;2.03;;;17.80;30.50;;;;;;5150459;27;46676;-70
2024/01/17 04:51:32;;;;;;;1.90;1.73;;;17.90;30.60;;;;;;5150393;27;45299;-70
2024/01/17 04:53:59;;;;;;;4.05;2.00;;;17.90;31.10;;;;;;5150585;27;45320;-70
2024/01/17 04:56:26;;;;;;;2.53;2.13;;;18.00;30.50;;;;;;5150660;27;45528;-70
2024/01/17 04:58:54;;;;;;;1.92;1.45;;;18.00;30.40;;;;;;5150589;27;46265;-70
2024/01/17 05:01:21;;;;;;;2.47;1.58;;;18.10;30.30;;;;;;5150647;27;45315;-70
2024/01/17 05:03:48;;;;;;;2.22;1.85;;;18.10;30.30;;;;;;5150593;27;45285;-71
2024/01/17 05:06:15;;;;;;;1.92;1.83;;;18.20;30.30;;;;;;5150520;27;45421;-70
2024/01/17 05:08:42;;;;;;;2.03;1.85;;;18.20;30.80;;;;;;5150198;27;46836;-70
2024/01/17 05:11:08;;;;;;;1.90;1.70;;;18.20;30.20;;;;;;5150186;27;45400;-70
2024/01/17 05:13:35;;;;;;;2.67;1.90;;;18.30;30.20;;;;;;5149527;27;45315;-70
2024/01/17 05:16:04;;;;;;;1.90;1.52;;;18.30;30.20;;;;;;5150496;27;45342;-71
2024/01/17 05:18:31;;;;;;;2.67;1.83;;;18.30;30.10;;;;;;5150249;27;46277;-70
2024/01/17 05:20:58;;;;;;;2.13;1.73;;;18.40;30.10;;;;;;5149978;27;45285;-70
2024/01/17 05:23:24;;;;;;;1.90;1.80;;;18.40;30.70;;;;;;5150010;27;45292;-70
2024/01/17 05:25:51;;;;;;;2.72;2.03;;;18.40;30.10;;;;;;5150238;27;45378;-70
2024/01/17 05:28:18;;;;;;;2.50;1.80;;;18.50;30.00;;;;;;5149797;27;46274;-70
2024/01/17 05:30:45;;;;;;;2.20;1.70;;;18.50;30.00;;;;;;5149970;27;45397;-70
2024/01/17 05:33:13;;;;;;;2.20;1.83;;;18.50;30.00;;;;;;5150083;27;45305;-70
2024/01/17 05:35:40;;;;;;;2.92;2.00;;;18.60;30.00;;;;;;5149946;27;45476;-70
2024/01/17 05:38:07;;;;;;;2.92;1.85;;;18.50;30.00;;;;;;5149974;27;47605;-71
2024/01/17 05:40:34;;;;;;;1.75;1.60;;;18.60;30.00;;;;;;5149486;27;45328;-70
2024/01/17 05:43:01;;;;;;;2.83;1.90;;;18.60;30.00;;;;;;5149714;27;45352;-70
2024/01/17 05:45:27;;;;;;;2.92;2.00;;;18.60;30.00;;;;;;5150054;27;45305;-70
2024/01/17 05:47:54;;;;;;;1.95;1.73;;;18.60;30.00;;;;;;5149468;27;46606;-70
2024/01/17 05:50:22;;;;;;;1.95;1.60;;;18.70;29.90;;;;;;5149584;27;45278;-70
2024/01/17 05:52:49;;;;;;;2.08;1.80;;;18.70;29.90;;;;;;5149666;27;45320;-70
2024/01/17 05:55:17;;;;;;;1.90;1.70;;;18.70;29.90;;;;;;5149065;27;45236;-70
2024/01/17 05:57:43;;;;;;;4.07;1.92;;;18.70;29.90;;;;;;5148903;27;45571;-70
2024/01/17 06:00:12;;;;;;;2.10;1.55;;;18.80;30.00;;;;;;5149556;27;45350;-71
2024/01/17 06:02:39;;;;;;;4.53;1.80;;;18.80;29.90;;;;;;5149525;27;45284;-70
2024/01/17 06:05:06;;;;;;;2.80;1.95;;;18.80;29.90;;;;;;5149628;27;45428;-71
2024/01/17 06:07:35;;;;;;;2.83;1.75;;;18.80;29.90;;;;;;5149379;27;45424;-70
2024/01/17 06:10:02;;;;;;;2.17;1.42;;;18.90;29.90;;;;;;5149270;27;45373;-70
2024/01/17 06:12:29;;;;;;;2.60;1.67;;;18.90;29.90;;;;;;5149550;27;45286;-70
2024/01/17 06:14:56;;;;;;;2.20;1.77;;;18.90;30.40;;;;;;5149631;27;45255;-71
2024/01/17 06:17:23;;;;;;;3.08;2.15;;;19.00;29.90;;;;;;5149148;27;45423;-70
2024/01/17 06:19:50;;;;;;;1.65;1.55;;;19.00;29.90;;;;;;5149173;27;45354;-70
2024/01/17 06:22:18;;;;;;;2.08;1.52;;;19.00;29.90;;;;;;5149277;27;45482;-70
2024/01/17 06:24:46;;;;;;;2.17;1.73;;;19.00;29.90;;;;;;5149221;27;45297;-70
2024/01/17 06:27:14;;;;;;;1.88;1.60;;;19.00;29.90;;;;;;5149012;27;47380;-70
2024/01/17 06:29:41;;;;;;;2.28;1.67;;;19.00;29.90;;;;;;5149060;27;45431;-70
2024/01/17 06:32:08;;;;;;;2.05;1.52;;;19.10;29.90;;;;;;5148971;27;45411;-70
2024/01/17 06:34:36;;;;;;;2.72;1.70;;;19.00;29.90;;;;;;5149262;27;45390;-70
2024/01/17 06:37:03;;;;;;;2.97;1.63;;;19.00;29.90;;;;;;5148691;27;45346;-70
2024/01/17 06:39:30;;;;;;;1.95;1.73;;;19.10;29.90;;;;;;5148144;27;45368;-71
2024/01/17 06:41:58;;;;;;;1.75;1.60;;;19.10;29.90;;;;;;5148240;27;45326;-71
2024/01/17 06:44:27;;;;;;;1.70;1.52;;;19.10;29.90;;;;;;5148701;27;45299;-70
2024/01/17 06:46:53;;;;;;;2.00;1.50;;;19.10;29.90;;;;;;5148567;27;46568;-70
2024/01/17 06:49:20;;;;;;;2.25;1.75;;;19.10;29.90;;;;;;5148973;27;45301;-71
2024/01/17 06:51:47;;;;;;;3.53;1.95;;;19.10;29.90;;;;;;5148355;27;45305;-70
2024/01/17 06:54:14;;;;;;;1.88;1.60;;;19.20;30.40;;;;;;5148644;27;45328;-71
2024/01/17 06:56:41;;;;;;;2.63;1.67;;;19.20;29.90;;;;;;5148440;27;45260;-70
2024/01/17 06:59:10;;;;;;;1.77;1.67;;;19.20;29.80;;;;;;5148327;27;45170;-70
2024/01/17 07:01:37;;;;;;;1.48;1.38;;;19.30;29.90;;;;;;5148297;27;45530;-71
2024/01/17 07:04:04;;;;;;;1.67;1.58;;;19.30;29.90;;;;;;5148651;27;45364;-71
2024/01/17 07:06:31;;;;;;;3.15;1.60;;;19.30;29.90;;;;;;5148108;27;45305;-71
2024/01/17 07:08:59;;;;;;;2.92;1.58;;;19.30;29.80;;;;;;5148099;27;45265;-70
2024/01/17 07:11:25;;;;;;;3.40;1.65;;;19.30;29.90;;;;;;5148140;27;45387;-70
2024/01/17 07:13:52;;;;;;;2.70;1.80;;;19.30;29.90;;;;;;5148656;27;45379;-70
2024/01/17 07:16:21;;;;;;;4.22;1.88;;;19.30;29.90;;;;;;5148371;27;46698;-70
2024/01/17 07:18:48;;;;;;;2.90;1.92;;;19.20;29.90;;;;;;5148459;27;45263;-70
2024/01/17 07:21:15;;;;;;;2.25;1.48;;;19.20;30.00;;;;;;5148427;27;45376;-70
2024/01/17 07:23:43;;;;;;;1.58;1.48;;;19.20;30.00;;;;;;5147778;27;45406;-71
2024/01/17 07:26:10;;;;;;;2.40;1.60;;;19.20;30.10;;;;;;5147776;27;45719;-71
2024/01/17 07:28:37;;;;;;;2.22;1.55;;;19.10;30.10;;;;;;5148503;27;45251;-71
2024/01/17 07:31:04;;;;;;;1.75;1.60;;;19.10;30.20;;;;;;5148557;27;45474;-70
2024/01/17 07:33:32;;;;;;;3.08;1.52;;;19.10;30.30;;;;;;5148617;27;45339;-71
2024/01/17 07:35:59;;;;;;;2.00;1.67;;;19.00;31.00;;;;;;5148035;27;47348;-70
2024/01/17 07:38:26;;;;;;;1.90;1.70;;;19.00;30.50;;;;;;5148070;27;45315;-70
2024/01/17 07:40:53;;;;;;;1.63;1.50;;;19.00;30.50;;;;;;5147802;27;45321;-67
2024/01/17 07:43:20;;;;;;;1.63;1.52;;;18.90;30.60;;;;;;5148343;27;45402;-68
2024/01/17 07:45:47;;;;;;;2.20;1.45;;;18.90;30.70;;;;;;5148148;27;46368;-67
2024/01/17 07:48:14;;;;;;;2.40;1.50;;;18.80;30.70;;;;;;5147988;27;45309;-67
2024/01/17 07:50:43;;;;;;;1.73;1.55;;;18.80;30.80;;;;;;5148048;27;45338;-67
2024/01/17 07:53:11;;;;;;;2.10;1.75;;;18.80;30.90;;;;;;5148320;27;45293;-67
2024/01/17 07:55:38;;;;;;;2.38;1.60;;;18.80;30.90;;;;;;5147495;27;46812;-67
2024/01/17 07:58:05;;;;;;;2.25;1.80;;;18.80;30.90;;;;;;5147772;27;45333;-67
2024/01/17 08:00:32;;;;;;;2.42;1.50;;;18.80;30.90;;;;;;5147593;27;45392;-67
2024/01/17 08:02:59;;;;;;;2.65;1.67;;;18.80;30.90;;;;;;5148015;27;45231;-67
2024/01/17 08:05:27;;;;;;;2.95;1.70;;;18.80;30.90;;;;;;5151018;27;46388;-67
2024/01/17 08:07:55;;;;;;;2.45;1.40;;;18.90;31.00;;;;;;5150393;27;45314;-67
2024/01/17 08:10:22;;;;;;;3.30;2.20;;;18.90;31.50;;;;;;5151188;27;45343;-67
2024/01/17 08:12:49;;;;;;;1.45;1.35;;;19.00;30.80;;;;;;5150962;27;45406;-68
2024/01/17 08:15:15;;;;;;;2.63;1.70;;;19.00;30.80;;;;;;5150872;27;45313;-67
2024/01/17 08:17:43;;;;;;;1.73;1.52;;;19.10;30.70;;;;;;5151022;27;45317;-67
2024/01/17 08:20:12;;;;;;;1.67;1.58;;;19.10;30.60;;;;;;5151075;27;45303;-67
2024/01/17 08:22:40;;;;;;;1.70;1.60;;;19.20;30.60;;;;;;5151311;27;45438;-67
2024/01/17 08:25:09;;;;;;;1.38;1.27;;;19.20;30.60;;;;;;5150633;27;45321;-66
2024/01/17 08:27:36;;;;;;;1.85;1.75;;;19.20;30.50;;;;;;5150925;27;45317;-67
2024/01/17 08:30:04;;;;;;;1.73;1.63;;;19.30;30.60;;;;;;5151094;27;45312;-67
2024/01/17 08:32:31;;;;;;;2.92;1.48;;;19.30;30.60;;;;;;5151165;27;45293;-68
2024/01/17 08:34:57;;;;;;;1.67;1.58;;;19.30;30.50;;;;;;5150688;27;46308;-67
2024/01/17 08:37:24;;;;;;;1.75;1.63;;;19.30;30.50;;;;;;5151023;27;45248;-68
2024/01/17 08:39:51;;;;;;;1.77;1.65;;;19.30;30.50;;;;;;5151073;27;45239;-67
2024/01/17 08:42:19;;;;;;;1.58;1.48;;;19.40;30.50;;;;;;5150854;27;45259;-67
2024/01/17 08:44:46;;;;;;;3.90;1.67;;;19.40;30.50;;;;;;5150694;27;46370;-67
2024/01/17 08:47:13;;;;;;;1.75;1.65;;;19.40;30.40;;;;;;5150505;27;45248;-67
2024/01/17 08:49:40;;;;;;;2.15;1.58;;;19.40;30.40;;;;;;5150738;27;45327;-68
2024/01/17 08:52:07;;;;;;;4.15;1.90;;;19.40;30.40;;;;;;5150026;27;45245;-67
2024/01/17 08:54:34;;;;;;;1.95;1.70;;;19.50;30.80;;;;;;5150320;27;45641;-67
2024/01/17 08:57:01;;;;;;;2.70;2.13;;;19.50;30.50;;;;;;5150016;27;45376;-67
2024/01/17 08:59:30;;;;;;;1.70;1.60;;;19.50;30.50;;;;;;5150280;27;45340;-67
2024/01/17 09:01:56;;;;;;;2.88;2.13;;;19.40;30.50;;;;;;5150237;27;45325;-68
2024/01/17 09:04:24;;;;;;;2.33;1.95;;;19.40;30.60;;;;;;5149743;27;47710;-67
2024/01/17 09:06:51;;;;;;;1.85;1.73;;;19.40;30.60;;;;;;5149821;27;45315;-67
2024/01/17 09:09:20;;;;;;;2.30;1.92;;;19.40;30.70;;;;;;5150233;27;45277;-68
2024/01/17 09:11:47;;;;;;;2.33;2.08;;;19.40;30.80;;;;;;5149947;27;45507;-67
2024/01/17 09:14:14;;;;;;;2.70;1.90;;;19.30;31.50;;;;;;5149018;27;46341;-67
2024/01/17 09:16:42;;;;;;;2.58;2.08;;;19.30;30.90;;;;;;5149529;27;45402;-67
2024/01/17 09:19:09;;;;;;;2.28;2.05;;;19.30;31.00;;;;;;5146860;27;45331;-67
2024/01/17 09:21:37;;;;;;;3.42;1.92;;;19.20;31.10;;;;;;5149811;27;45467;-67
2024/01/17 09:24:04;;;;;;;3.50;2.15;;;19.20;31.20;;;;;;5149416;27;46352;-67
2024/01/17 09:26:30;;;;;;;2.72;1.90;;;19.10;31.20;;;;;;5149698;27;45365;-67
2024/01/17 09:28:57;;;;;;;3.58;2.25;;;19.10;31.30;;;;;;5149725;27;45342;-67
2024/01/17 09:31:24;;;;;;;2.97;2.03;;;19.00;31.40;;;;;;5150048;27;45502;-67
2024/01/17 09:33:53;;;;;;;2.75;2.00;;;19.00;31.50;;;;;;5149556;27;45343;-66
2024/01/17 09:36:20;;;;;;;2.58;2.13;;;19.00;32.20;;;;;;5148240;27;45557;-67
2024/01/17 09:38:46;;;;;;;3.53;2.15;;;18.90;31.70;;;;;;5148985;27;45284;-66
2024/01/17 09:41:13;;;;;;;2.33;2.10;;;18.90;31.80;;;;;;5149100;27;45402;-68
2024/01/17 09:43:40;;;;;;;3.40;2.28;;;18.80;32.00;;;;;;5149194;27;45251;-67
2024/01/17 09:46:12;;;;;;;3.45;2.00;;;18.90;32.00;;;;;;5149273;27;45284;-68
2024/01/17 09:48:39;;;;;;;2.47;2.00;;;19.00;32.00;;;;;;5148680;27;45393;-69
2024/01/17 09:51:07;;;;;;;4.85;2.78;;;19.00;31.90;;;;;;5149316;27;45325;-74
2024/01/17 09:53:35;;;;;;;3.40;2.20;;;19.10;31.90;;;;;;5149749;27;45385;-75
2024/01/17 09:56:02;;;;;;;2.45;2.03;;;19.10;31.80;;;;;;5149526;27;45507;-76
2024/01/17 09:58:32;;;;;;;2.05;1.90;;;19.10;31.70;;;;;;5149371;27;45436;-77
2024/01/17 10:01:00;;;;;;;2.40;2.20;;;19.20;31.60;;;;;;5149986;27;45289;-75
2024/01/17 10:03:26;;;;;;;2.20;2.00;;;19.20;31.60;;;;;;5150223;27;46737;-77
2024/01/17 10:05:55;;;;;;;2.92;2.40;;;19.30;31.50;;;;;;5149524;27;45446;-78
2024/01/17 10:08:24;;;;;;;3.33;2.17;;;19.30;31.50;;;;;;5150647;27;45355;-79
2024/01/17 10:10:50;;;;;;;3.15;2.40;;;19.30;31.40;;;;;;5149784;27;45303;-79
2024/01/17 10:13:17;;;;;;;3.85;2.47;;;19.40;31.30;;;;;;5144575;27;46412;-71
2024/01/17 10:15:44;;;;;;;2.38;2.15;;;19.40;31.90;;;;;;5149426;27;45488;-71
2024/01/17 10:18:12;;;;;;;2.33;2.13;;;19.50;32.00;;;;;;5148869;27;45363;-73
2024/01/17 10:20:38;;;;;;;2.30;1.90;;;19.50;32.50;;;;;;5149115;27;45491;-72
2024/01/17 10:23:06;;;;;;;4.40;2.40;;;19.60;31.80;;;;;;5148052;27;45320;-72
2024/01/17 10:25:39;;;;;;;3.58;2.40;;;19.60;31.90;;;;;;5148154;27;45372;-72
2024/01/17 10:28:06;;;;;;;2.30;2.00;;;19.60;31.80;;;;;;5148364;27;45335;-73
2024/01/17 10:30:33;;;;;;;2.20;2.00;;;19.70;31.80;;;;;;5149294;27;45349;-73
2024/01/17 10:33:00;;;;;;;2.40;2.20;;;19.70;31.80;;;;;;5148842;27;45485;-74
2024/01/17 10:35:29;;;;;;;4.18;1.85;;;19.70;31.90;;;;;;5148690;27;45192;-73
2024/01/17 10:37:56;;;;;;;3.13;2.13;;;19.70;31.80;;;;;;5149252;27;45391;-74
2024/01/17 10:40:23;;;;;;;2.88;1.95;;;19.80;31.80;;;;;;5148512;27;45568;-69
2024/01/17 10:43:07;;;;;;;2.88;2.33;;;19.80;32.00;;;;;;5147774;27;46520;-66
2024/01/17 10:45:34;;;;;;;6.95;2.08;;;19.70;32.00;;;;;;5128508;27;45400;-69
2024/01/17 10:48:01;;;;;;;2.72;2.38;;;19.70;32.00;;;;;;5147951;27;45324;-70
2024/01/17 10:50:28;;;;;;;2.13;1.95;;;19.70;32.10;;;;;;5147577;27;45411;-67
2024/01/17 10:52:55;;;;;;;2.40;1.98;;;19.70;32.70;;;;;;5147215;27;46391;-70
2024/01/17 10:55:22;;;;;;;1.95;1.77;;;19.80;32.10;;;;;;5147147;27;45318;-68
2024/01/17 10:57:51;;;;;;;4.55;2.50;;;19.80;32.10;;;;;;5147984;27;45394;-69
2024/01/17 11:00:26;;;;;;;2.67;2.17;;;19.70;32.70;;;;;;5127312;27;45430;-69
2024/01/17 11:02:52;;;;;;;4.57;2.35;;;19.70;32.10;;;;;;5144714;27;45384;-70
2024/01/17 11:05:19;;;;;;;2.40;2.10;;;19.70;32.10;;;;;;5148067;27;45307;-69
2024/01/17 11:07:46;;;;;;;5.75;2.70;;;19.70;32.20;;;;;;5148573;27;45368;-70
2024/01/17 11:10:13;;;;;;;4.03;2.28;;;19.70;32.90;;;;;;5145512;27;45360;-68
2024/01/17 11:12:41;;;;;;;2.55;2.35;;;19.70;32.40;;;;;;5147532;27;45441;-69
2024/01/17 11:15:08;;;;;;;2.92;2.63;;;19.70;32.40;;;;;;5148110;27;45314;-71
2024/01/17 11:17:37;;;;;;;4.03;2.67;;;19.70;32.40;;;;;;5148192;27;45334;-69
2024/01/17 11:20:08;;;;;;;2.90;2.53;;;19.70;32.50;;;;;;5148223;27;45331;-68
2024/01/17 11:22:36;;;;;;;3.00;2.70;;;19.70;32.50;;;;;;5147734;27;46656;-70
2024/01/17 11:25:10;;;;;;;4.05;2.70;;;19.60;32.50;;;;;;5147772;27;45338;-69
2024/01/17 11:27:39;;;;;;;3.15;2.83;;;19.60;32.50;;;;;;5147800;27;45321;-69
2024/01/17 11:30:09;;;;;;;3.30;3.00;;;19.60;32.50;;;;;;5148012;27;45542;-70
2024/01/17 11:32:43;;;;;;;3.40;2.60;;;19.60;32.60;;;;;;5146932;27;47242;-68
2024/01/17 11:35:10;;;;;;;3.83;2.55;;;19.60;32.60;;;;;;5147535;27;45244;-69
2024/01/17 11:37:38;;;;;;;4.45;2.75;;;19.60;32.60;;;;;;5148585;27;45292;-70
2024/01/17 11:40:07;;;;;;;3.88;2.70;;;19.60;32.70;;;;;;5151308;27;45476;-70
2024/01/17 11:42:34;;;;;;;4.53;2.70;;;19.60;33.40;;;;;;5153245;27;47604;-70
2024/01/17 11:45:03;;;;;;;3.28;2.85;;;19.60;32.90;;;;;;5151248;27;45328;-67
2024/01/17 11:47:29;;;;;;;5.15;2.67;;;19.60;33.40;;;;;;5151001;27;45450;-65
2024/01/17 11:49:58;;;;;;;3.50;2.72;;;19.50;33.50;;;;;;5150434;27;45520;-65
2024/01/17 11:52:27;;;;;;;3.75;2.90;;;19.50;33.50;;;;;;5149845;27;46275;-66
2024/01/17 11:54:54;;;;;;;5.20;2.65;;;19.60;33.60;;;;;;5150105;27;45393;-67
2024/01/17 11:57:20;;;;;;;3.28;2.80;;;19.60;33.60;;;;;;5147800;27;45324;-66
2024/01/17 12:00:02;;;;;;;4.10;3.10;;;19.60;33.90;;;;;;5150916;27;45296;-67
2024/01/17 12:02:36;;;;;;;4.70;3.17;;;19.50;33.80;;;;;;5147824;27;46302;-66
2024/01/17 12:05:06;;;;;;;6.30;2.90;;;19.60;33.80;;;;;;5147598;27;45456;-68
2024/01/17 12:07:37;;;;;;;3.40;2.80;;;19.60;33.80;;;;;;5148330;27;45271;-67
2024/01/17 12:10:09;;;;;;;3.03;2.72;;;19.60;33.80;;;;;;5151401;27;45356;-67
2024/01/17 12:12:37;;;;;;;4.50;3.10;;;19.60;33.80;;;;;;5149899;27;46565;-69
2024/01/17 12:15:06;;;;;;;4.38;2.72;;;19.60;33.80;;;;;;5149733;27;45361;-70
2024/01/17 12:17:34;;;;;;;4.25;2.97;;;19.60;33.70;;;;;;5150960;27;45321;-67
2024/01/17 12:20:01;;;;;;;5.40;2.97;;;19.60;33.70;;;;;;5150890;27;45270;-68
2024/01/17 12:22:30;;;;;;;3.88;2.72;;;19.60;33.90;;;;;;5150122;27;45440;-69
2024/01/17 12:24:57;;;;;;;3.42;3.00;;;19.60;33.90;;;;;;5146778;27;45345;-68
2024/01/17 12:27:24;;;;;;;4.18;2.72;;;19.60;33.90;;;;;;5146362;27;45339;-69
2024/01/17 12:29:54;;;;;;;4.15;2.63;;;19.70;33.90;;;;;;5149742;27;45562;-69
2024/01/17 12:32:22;;;;;;;3.78;2.45;;;19.70;34.00;;;;;;5149458;27;46922;-71
2024/01/17 12:34:49;;;;;;;6.22;3.00;;;19.70;34.10;;;;;;5149938;27;45392;-68
2024/01/17 12:37:16;;;;;;;4.22;2.80;;;19.70;34.90;;;;;;5149690;27;45302;-67
2024/01/17 12:39:44;;;;;;;4.32;2.55;;;19.60;35.90;;;;;;5149825;27;45451;-66
2024/01/17 12:42:10;;;;;;;5.45;2.88;;;19.60;34.90;;;;;;5148883;27;46260;-65
2024/01/17 12:44:37;;;;;;;4.18;2.70;;;19.70;35.30;;;;;;5149542;27;45359;-67
2024/01/17 12:47:04;;;;;;;6.07;2.92;;;19.70;34.80;;;;;;5150020;27;45395;-67
2024/01/17 12:49:31;;;;;;;5.88;2.88;;;19.70;34.80;;;;;;5149759;27;45313;-67